Warroad, MN

1:23 AM CDT on May 26, 2018 (GMT -0500)
Warroad International-Carlson

Weather History for KRRT - October, 2013

Change the Weather History Date:

Wednesday, October 9, 2013

  Actual Average Record
Temperature  
Mean Temperature 54 °F -  
Max Temperature 68 °F 55 °F 80 °F (1960)
Min Temperature 39 °F 34 °F 19 °F (1993)
Degree Days  
Heating Degree Days 12    
Growing Degree Days 4 (Base 50)    
Moisture  
Dew Point 45 °F    
Average Humidity 77    
Maximum Humidity 87    
Minimum Humidity 46    
Precipitation  
Precipitation 0.00 in - - ()
Sea Level Pressure  
Sea Level Pressure 29.93 in    
Wind  
Wind Speed 3 mph (SSW)    
Max Wind Speed 7 mph    
Max Gust Speed -    
Visibility 10 miles    
Events      
Averages and records for this station are not official NWS values.
T = Trace of Precipitation, MM = Missing Value Source: NWS Daily Summary

Daily Weather History Graph

Daily Weather History Graph

Search for Another Location

Airport or City:

Astronomy

Oct. 09, 2013 Rise Set
Actual Time 7:33 AM CDT 6:43 PM CDT
Civil Twilight 7:01 AM CDT 7:14 PM CDT
Nautical Twilight 6:24 AM CDT 7:51 PM CDT
Astronomical Twilight 5:48 AM CDT 8:27 PM CDT
Moon 12:50 PM CDT (10/9) 9:58 PM CDT (10/9)
Length of Visible Light 12h 13m
Length of Day
11h 09m
Waxing Crescent, 25% of the Moon is Illuminated
Oct 9
Waxing Crescent
Oct 11
First Quarter
Oct 18
Full
Oct 26
Last Quarter
Nov 3
New

Hourly Weather History & Observations

Time (CDT) Temp. Windchill Dew Point Humidity Pressure Visibility Wind Dir Wind Speed Gust Speed Precip Events Conditions
12:14 AM 48.2 °F - 44.6 °F 87% 29.76 in 10.0 mi WSW 5.8 mph - N/A   Clear
12:34 AM 50.0 °F - 46.4 °F 87% 29.76 in 10.0 mi WSW 4.6 mph - N/A   Clear
12:54 AM 50.0 °F - 46.4 °F 87% 29.77 in 10.0 mi WSW 3.5 mph - N/A   Clear
1:14 AM 44.6 °F - 41.0 °F 87% 29.77 in 10.0 mi Calm Calm - N/A   Clear
1:33 AM 44.6 °F 43.1 °F 39.2 °F 81% 29.77 in 10.0 mi South 3.5 mph - N/A   Clear
1:54 AM 44.6 °F 43.1 °F 41.0 °F 87% 29.78 in 10.0 mi South 3.5 mph - N/A   Clear
2:14 AM 44.6 °F 42.2 °F 41.0 °F 87% 29.79 in 7.0 mi SSW 4.6 mph - N/A   Clear
2:34 AM 44.6 °F 42.2 °F 41.0 °F 87% 29.79 in 7.0 mi South 4.6 mph - N/A   Clear
2:54 AM 44.6 °F 43.1 °F 41.0 °F 87% 29.80 in 10.0 mi SW 3.5 mph - N/A   Clear
3:14 AM 44.6 °F 43.1 °F 41.0 °F 87% 29.80 in 7.0 mi WSW 3.5 mph - N/A   Clear
3:34 AM 44.6 °F 43.1 °F 41.0 °F 87% 29.81 in 10.0 mi SSW 3.5 mph - N/A   Clear
3:54 AM 44.6 °F 43.1 °F 41.0 °F 87% 29.81 in 7.0 mi SW 3.5 mph - N/A   Clear
4:14 AM 44.6 °F 41.4 °F 41.0 °F 87% 29.83 in 10.0 mi SW 5.8 mph - N/A   Clear
4:34 AM 46.4 °F 44.3 °F 42.8 °F 87% 29.83 in 10.0 mi WSW 4.6 mph - N/A   Clear
4:54 AM 46.4 °F 43.5 °F 42.8 °F 87% 29.84 in 10.0 mi SW 5.8 mph - N/A   Clear
5:14 AM 46.4 °F 44.3 °F 42.8 °F 87% 29.85 in 10.0 mi WSW 4.6 mph - N/A   Clear
5:34 AM 44.6 °F 42.2 °F 41.0 °F 87% 29.85 in 10.0 mi West 4.6 mph - N/A   Clear
5:54 AM 44.6 °F 43.1 °F 41.0 °F 87% 29.86 in 10.0 mi West 3.5 mph - N/A   Clear
6:14 AM 44.6 °F - 39.2 °F 81% 29.87 in 10.0 mi Calm Calm - N/A   Clear
6:33 AM 42.8 °F - 39.2 °F 87% 29.88 in 10.0 mi Calm Calm - N/A   Clear
6:54 AM 42.8 °F 41.1 °F 39.2 °F 87% 29.89 in 10.0 mi SW 3.5 mph - N/A   Clear
7:14 AM 41.0 °F 39.0 °F 37.4 °F 87% 29.89 in 10.0 mi SSW 3.5 mph - N/A   Clear
7:33 AM 41.0 °F 39.0 °F 37.4 °F 87% 29.90 in 7.0 mi SW 3.5 mph - N/A   Clear
7:54 AM 39.2 °F - 35.6 °F 87% 29.90 in 5.0 mi Calm Calm - N/A   Clear
8:14 AM 39.2 °F - 35.6 °F 87% 29.91 in 7.0 mi Calm Calm - N/A   Clear
8:33 AM 41.0 °F - 37.4 °F 87% 29.91 in 10.0 mi Calm Calm - N/A   Clear
8:54 AM 42.8 °F 41.1 °F 37.4 °F 81% 29.92 in 10.0 mi WSW 3.5 mph - N/A   Clear
9:14 AM 44.6 °F - 41.0 °F 87% 29.92 in 10.0 mi Calm Calm - N/A   Clear
9:33 AM 48.2 °F - 44.6 °F 87% 29.93 in 10.0 mi Calm Calm - N/A   Clear
9:54 AM 50.0 °F - 44.6 °F 82% 29.93 in 10.0 mi Calm Calm - N/A   Clear
10:14 AM 51.8 °F - 46.4 °F 82% 29.94 in 10.0 mi NW 3.5 mph - N/A   Clear
10:33 AM 53.6 °F - 48.2 °F 82% 29.95 in 10.0 mi Calm Calm - N/A   Clear
11:14 AM 59.0 °F - 50.0 °F 72% 29.96 in 10.0 mi Calm Calm - N/A   Clear
11:33 AM 60.8 °F - 51.8 °F 72% 29.96 in 10.0 mi Calm Calm - N/A   Clear
11:54 AM 62.6 °F - 51.8 °F 68% 29.96 in 10.0 mi Calm Calm - N/A   Clear
12:14 PM 62.6 °F - 50.0 °F 63% 29.97 in 7.0 mi Calm Calm - N/A   Clear
12:34 PM 62.6 °F - 51.8 °F 68% 29.98 in 10.0 mi West 3.5 mph - N/A   Clear
12:54 PM 64.4 °F - 51.8 °F 64% 29.98 in 10.0 mi WSW 3.5 mph - N/A   Clear
1:14 PM 66.2 °F - 46.4 °F 49% 29.97 in 10.0 mi Calm Calm - N/A   Clear
1:34 PM 66.2 °F - 46.4 °F 49% 29.97 in 10.0 mi Calm Calm - N/A   Clear
1:54 PM 66.2 °F - 48.2 °F 52% 29.97 in 10.0 mi Calm Calm - N/A   Clear
2:14 PM 68.0 °F - 46.4 °F 46% 29.97 in 10.0 mi Calm Calm - N/A   Clear
2:34 PM 68.0 °F - 50.0 °F 52% 29.97 in 10.0 mi NE 4.6 mph - N/A   Clear
2:54 PM 68.0 °F - 51.8 °F 56% 29.97 in 10.0 mi ENE 5.8 mph - N/A   Clear
3:14 PM 64.4 °F - 53.6 °F 68% 29.98 in 10.0 mi East 5.8 mph - N/A   Clear
3:34 PM 66.2 °F - 50.0 °F 56% 29.98 in 10.0 mi East 6.9 mph - N/A   Clear
3:53 PM 66.2 °F - 48.2 °F 52% 29.98 in 10.0 mi East 5.8 mph - N/A   Clear
4:14 PM 66.2 °F - 50.0 °F 56% 29.98 in 10.0 mi East 4.6 mph - N/A   Clear
4:34 PM 66.2 °F - 50.0 °F 56% 29.98 in 10.0 mi East 5.8 mph - N/A   Clear
4:54 PM 66.2 °F - 50.0 °F 56% 29.98 in 10.0 mi East 3.5 mph - N/A   Clear
5:14 PM 64.4 °F - 51.8 °F 64% 29.98 in 10.0 mi ESE 4.6 mph - N/A   Clear
5:33 PM 62.6 °F - 48.2 °F 59% 29.99 in 10.0 mi East 3.5 mph - N/A   Clear
5:54 PM 60.8 °F - 48.2 °F 63% 29.99 in 7.0 mi Calm Calm - N/A   Clear
6:14 PM 59.0 °F - 50.0 °F 72% 30.00 in 10.0 mi Calm Calm - N/A   Clear
6:34 PM 57.2 °F - 48.2 °F 72% 30.00 in 7.0 mi Calm Calm - N/A   Clear
6:54 PM 57.2 °F - 48.2 °F 72% 30.00 in 10.0 mi Calm Calm - N/A   Clear
7:14 PM 55.4 °F - 50.0 °F 82% 30.01 in 10.0 mi Calm Calm - N/A   Clear
7:34 PM 53.6 °F - 48.2 °F 82% 30.00 in 10.0 mi Calm Calm - N/A   Clear
7:54 PM 53.6 °F - 48.2 °F 82% 30.00 in 10.0 mi Calm Calm - N/A   Clear
8:14 PM 53.6 °F - 48.2 °F 82% 30.01 in 10.0 mi Calm Calm - N/A   Clear
8:34 PM 53.6 °F - 48.2 °F 82% 30.00 in 10.0 mi Calm Calm - N/A   Clear
8:54 PM 50.0 °F - 46.4 °F 87% 30.01 in 10.0 mi Calm Calm - N/A   Clear
9:14 PM 48.2 °F - 44.6 °F 87% 30.01 in 10.0 mi Calm Calm - N/A   Clear
9:34 PM 50.0 °F - 46.4 °F 87% 30.01 in 10.0 mi Calm Calm - N/A   Clear
9:54 PM 48.2 °F - 44.6 °F 87% 30.01 in 10.0 mi Calm Calm - N/A   Clear
10:14 PM 50.0 °F - 46.4 °F 87% 30.01 in 10.0 mi WNW 3.5 mph - N/A   Clear
10:34 PM 51.8 °F - 46.4 °F 82% 30.02 in 10.0 mi Calm Calm - N/A   Clear
10:54 PM 48.2 °F - 44.6 °F 87% 30.02 in 10.0 mi Calm Calm - N/A   Clear
11:14 PM 48.2 °F - 44.6 °F 87% 30.02 in 10.0 mi Calm Calm - N/A   Clear
11:34 PM 48.2 °F - 44.6 °F 87% 30.03 in 10.0 mi Calm Calm - N/A   Clear
11:54 PM 50.0 °F - 46.4 °F 87% 30.02 in 10.0 mi Calm Calm - N/A   Clear